createdAt,value
2022-10-11T00:00:42.073Z,4.17
2022-10-11T00:03:08.557Z,4.00
2022-10-11T00:05:35.393Z,3.57
2022-10-11T00:08:01.813Z,4.60
2022-10-11T00:10:28.158Z,4.03
2022-10-11T00:12:54.505Z,3.97
2022-10-11T00:15:22.801Z,4.20
2022-10-11T00:17:49.389Z,4.00
2022-10-11T00:20:15.922Z,4.37
2022-10-11T00:22:42.996Z,4.50
2022-10-11T00:25:11.369Z,3.83
2022-10-11T00:27:38.404Z,4.40
2022-10-11T00:30:06.656Z,3.63
2022-10-11T00:32:34.610Z,4.30
2022-10-11T00:35:04.705Z,4.10
2022-10-11T00:37:32.217Z,3.90
2022-10-11T00:39:58.641Z,4.00
2022-10-11T00:42:25.403Z,4.67
2022-10-11T00:44:51.729Z,3.97
2022-10-11T00:47:24.482Z,3.43
2022-10-11T00:50:00.946Z,3.80
2022-10-11T00:52:32.030Z,3.83
2022-10-11T00:55:02.606Z,4.07
2022-10-11T00:57:33.970Z,3.87
2022-10-11T01:00:01.240Z,4.20
2022-10-11T01:02:27.621Z,4.53
2022-10-11T01:05:05.907Z,3.67
2022-10-11T01:07:39.000Z,5.10
2022-10-11T01:10:05.591Z,4.50
2022-10-11T01:12:32.012Z,4.70
2022-10-11T01:15:22.493Z,4.20
2022-10-11T01:18:19.383Z,4.40
2022-10-11T01:21:25.956Z,5.07
2022-10-11T01:24:10.448Z,5.53
2022-10-11T01:26:49.048Z,4.90
2022-10-11T01:29:39.234Z,4.80
2022-10-11T01:32:17.480Z,4.77
2022-10-11T01:35:05.548Z,5.03
2022-10-11T01:37:37.077Z,4.97
2022-10-11T01:40:11.719Z,4.80
2022-10-11T01:42:40.130Z,5.40
2022-10-11T01:45:13.899Z,5.10
2022-10-11T01:47:42.341Z,5.00
2022-10-11T01:50:33.006Z,4.73
2022-10-11T01:53:19.905Z,5.10
2022-10-11T01:56:04.975Z,4.90
2022-10-11T01:58:49.973Z,4.73
2022-10-11T02:01:34.957Z,4.80
2022-10-11T02:04:11.022Z,4.50
2022-10-11T02:06:51.485Z,5.30
2022-10-11T02:09:28.746Z,4.60
2022-10-11T02:11:59.037Z,5.17
2022-10-11T02:14:31.774Z,5.90
2022-10-11T02:17:04.377Z,5.40
2022-10-11T02:19:38.438Z,5.20
2022-10-11T02:22:10.245Z,5.80
2022-10-11T02:24:41.725Z,5.70
2022-10-11T02:27:10.411Z,5.63
2022-10-11T02:29:41.382Z,5.33
2022-10-11T02:32:10.188Z,5.20
2022-10-11T02:34:52.869Z,5.10
2022-10-11T02:37:55.811Z,6.07
2022-10-11T02:40:32.863Z,5.77
2022-10-11T02:43:13.899Z,6.50
2022-10-11T02:45:44.579Z,6.00
2022-10-11T02:48:12.453Z,6.30
2022-10-11T02:50:39.670Z,6.20
2022-10-11T02:53:06.492Z,6.50
2022-10-11T02:55:33.014Z,6.03
2022-10-11T02:57:59.405Z,6.60
2022-10-11T03:00:26.084Z,6.77
2022-10-11T03:02:52.397Z,6.60
2022-10-11T03:05:18.747Z,6.20
2022-10-11T03:07:45.133Z,7.30
2022-10-11T03:10:11.980Z,7.17
2022-10-11T03:12:38.366Z,7.60
2022-10-11T03:15:05.202Z,8.07
2022-10-11T03:17:36.534Z,8.37
2022-10-11T03:20:04.909Z,8.43
2022-10-11T03:22:31.230Z,9.20
2022-10-11T03:25:02.545Z,8.23
2022-10-11T03:27:30.237Z,9.17
2022-10-11T03:29:57.006Z,10.87
2022-10-11T03:32:23.302Z,13.13
2022-10-11T03:34:49.625Z,13.30
2022-10-11T03:37:16.005Z,16.37
2022-10-11T03:39:42.629Z,14.97
2022-10-11T03:42:08.929Z,17.37
2022-10-11T03:44:35.201Z,17.10
2022-10-11T03:47:01.610Z,17.93
2022-10-11T03:49:27.908Z,18.63
2022-10-11T03:51:54.191Z,20.93
2022-10-11T03:54:20.553Z,21.60
2022-10-11T03:56:46.906Z,21.67
2022-10-11T03:59:13.233Z,22.33
2022-10-11T04:01:39.683Z,21.43
2022-10-11T04:04:06.031Z,21.73
2022-10-11T04:06:32.829Z,19.80
2022-10-11T04:08:59.689Z,18.37
2022-10-11T04:11:26.021Z,19.63
2022-10-11T04:13:52.353Z,18.37
2022-10-11T04:16:18.658Z,17.70
2022-10-11T04:18:44.928Z,18.00
2022-10-11T04:21:11.280Z,17.07
2022-10-11T04:23:37.573Z,17.30
2022-10-11T04:26:07.439Z,16.87
2022-10-11T04:28:34.872Z,16.07
2022-10-11T04:31:01.466Z,17.93
2022-10-11T04:33:27.780Z,17.50
2022-10-11T04:35:55.986Z,15.50
2022-10-11T04:38:23.410Z,14.27
2022-10-11T04:40:49.869Z,12.50
2022-10-11T04:43:17.417Z,12.30
2022-10-11T04:45:43.905Z,12.87
2022-10-11T04:48:10.266Z,12.10
2022-10-11T04:50:37.083Z,12.97
2022-10-11T04:53:03.434Z,12.10
2022-10-11T04:55:29.725Z,11.20
2022-10-11T04:57:56.026Z,11.50
2022-10-11T05:00:22.533Z,11.60
2022-10-11T05:02:48.830Z,11.43
2022-10-11T05:05:17.460Z,10.53
2022-10-11T05:07:44.054Z,10.33
2022-10-11T05:10:10.740Z,11.00
2022-10-11T05:12:37.049Z,9.80
2022-10-11T05:15:03.774Z,8.83
2022-10-11T05:17:30.162Z,9.40
2022-10-11T05:19:56.536Z,8.10
2022-10-11T05:22:22.838Z,9.40
2022-10-11T05:24:49.146Z,7.90
2022-10-11T05:27:15.434Z,8.20
2022-10-11T05:29:41.771Z,8.90
2022-10-11T05:32:08.054Z,7.83
2022-10-11T05:34:34.395Z,8.10
2022-10-11T05:37:00.725Z,8.10
2022-10-11T05:39:27.017Z,8.03
2022-10-11T05:41:53.512Z,8.40
2022-10-11T05:44:19.793Z,8.10
2022-10-11T05:46:46.335Z,7.87
2022-10-11T05:49:12.930Z,7.77
2022-10-11T05:51:39.303Z,10.33
2022-10-11T05:54:05.645Z,7.57
2022-10-11T05:56:31.938Z,6.63
2022-10-11T05:59:02.197Z,7.30
2022-10-11T06:01:29.189Z,6.63
2022-10-11T06:03:55.868Z,6.27
2022-10-11T06:06:22.921Z,6.10
2022-10-11T06:08:49.624Z,6.00
2022-10-11T06:11:21.840Z,6.20
2022-10-11T06:13:48.663Z,6.30
2022-10-11T06:16:16.071Z,6.40
2022-10-11T06:18:42.405Z,8.13
2022-10-11T06:21:08.834Z,6.90
2022-10-11T06:23:35.247Z,8.20
2022-10-11T06:26:05.988Z,8.93
2022-10-11T06:28:34.133Z,8.90
2022-10-11T06:31:02.594Z,8.90
2022-10-11T06:33:28.894Z,10.20
2022-10-11T06:36:05.396Z,10.00
2022-10-11T06:38:32.004Z,10.50
2022-10-11T06:40:58.447Z,12.37
2022-10-11T06:43:25.281Z,10.33
2022-10-11T06:45:51.730Z,10.27
2022-10-11T06:48:18.033Z,11.23
2022-10-11T06:51:00.674Z,10.47
2022-10-11T06:53:27.872Z,11.07
2022-10-11T06:55:54.200Z,11.60
2022-10-11T06:58:20.566Z,11.77
2022-10-11T07:00:46.957Z,12.63
2022-10-11T07:03:13.342Z,11.17
2022-10-11T07:05:39.683Z,11.83
2022-10-11T07:08:05.997Z,11.23
2022-10-11T07:10:32.282Z,12.17
2022-10-11T07:12:58.621Z,12.20
2022-10-11T07:15:25.020Z,12.80
2022-10-11T07:17:51.324Z,13.93
2022-10-11T07:20:17.734Z,13.73
2022-10-11T07:22:44.094Z,13.40
2022-10-11T07:25:10.443Z,14.63
2022-10-11T07:27:36.751Z,14.30
2022-10-11T07:30:03.534Z,15.53
2022-10-11T07:32:29.828Z,17.37
2022-10-11T07:34:56.689Z,17.03
2022-10-11T07:37:22.996Z,17.60
2022-10-11T07:39:49.659Z,18.67
2022-10-11T07:42:15.959Z,18.80
2022-10-11T07:44:42.297Z,20.37
2022-10-11T07:47:11.213Z,20.03
2022-10-11T07:49:37.916Z,18.80
2022-10-11T07:52:04.565Z,18.63
2022-10-11T07:54:30.875Z,19.30
2022-10-11T07:56:57.284Z,19.03
2022-10-11T07:59:23.612Z,19.53
2022-10-11T08:01:50.390Z,21.33
2022-10-11T08:04:16.848Z,19.53
2022-10-11T08:06:43.284Z,19.27
2022-10-11T08:09:10.220Z,19.87
2022-10-11T08:11:37.488Z,19.37
2022-10-11T08:14:08.392Z,19.63
2022-10-11T08:16:36.043Z,19.93
2022-10-11T08:19:03.245Z,20.43
2022-10-11T08:21:30.477Z,21.17
2022-10-11T08:23:56.845Z,19.07
2022-10-11T08:26:24.120Z,20.67
2022-10-11T08:28:50.571Z,21.33
2022-10-11T08:31:16.960Z,21.17
2022-10-11T08:33:43.901Z,21.20
2022-10-11T08:36:11.405Z,21.50
2022-10-11T08:38:39.266Z,25.73
2022-10-11T08:41:34.908Z,25.50
2022-10-11T08:44:01.173Z,25.20
2022-10-11T08:46:33.513Z,25.00
2022-10-11T08:49:01.852Z,24.73
2022-10-11T08:51:32.020Z,24.80
2022-10-11T08:54:10.731Z,24.70
2022-10-11T08:56:40.665Z,25.20
2022-10-11T08:59:24.993Z,24.10
2022-10-11T09:02:01.768Z,24.90
2022-10-11T09:04:28.420Z,26.03
2022-10-11T09:07:28.382Z,26.40
2022-10-11T09:10:12.288Z,27.33
2022-10-11T09:12:55.480Z,25.73
2022-10-11T09:15:38.331Z,23.87
2022-10-11T09:18:30.070Z,23.70
2022-10-11T09:21:05.381Z,23.30
2022-10-11T09:24:09.554Z,24.83
2022-10-11T09:26:59.647Z,21.10
2022-10-11T09:30:00.846Z,24.63
2022-10-11T09:32:31.842Z,25.13
2022-10-11T09:35:09.241Z,24.87
2022-10-11T09:37:54.017Z,25.93
2022-10-11T09:40:45.115Z,22.97
2022-10-11T09:43:12.051Z,25.90
2022-10-11T09:45:45.703Z,28.07
2022-10-11T09:48:22.937Z,26.63
2022-10-11T09:50:51.562Z,27.60
2022-10-11T09:53:19.224Z,27.70
2022-10-11T09:55:53.047Z,28.40
2022-10-11T09:58:34.517Z,29.73
2022-10-11T10:01:07.650Z,29.70
2022-10-11T10:03:40.316Z,27.37
2022-10-11T10:06:16.408Z,31.47
2022-10-11T10:08:45.285Z,31.03
2022-10-11T10:11:12.422Z,29.07
2022-10-11T10:13:46.193Z,27.40
2022-10-11T10:16:23.462Z,29.80
2022-10-11T10:18:56.775Z,30.17
2022-10-11T10:21:33.064Z,29.10
2022-10-11T10:24:03.978Z,31.03
2022-10-11T10:26:32.221Z,29.40
2022-10-11T10:29:05.016Z,28.80
2022-10-11T10:32:12.802Z,27.83
2022-10-11T10:34:41.197Z,31.30
2022-10-11T10:37:29.145Z,26.90
2022-10-11T10:40:16.003Z,29.13
2022-10-11T10:42:42.449Z,31.00
2022-10-11T10:45:20.852Z,30.60
2022-10-11T10:48:08.986Z,30.77
2022-10-11T10:50:58.244Z,29.33
2022-10-11T10:53:34.203Z,29.17
2022-10-11T10:56:39.006Z,30.47
2022-10-11T10:59:47.824Z,27.83
2022-10-11T11:05:29.933Z,22.40
2022-10-11T11:08:10.585Z,21.70
2022-10-11T11:10:47.120Z,22.03
2022-10-11T11:13:25.200Z,21.27
2022-10-11T11:16:30.465Z,20.47
2022-10-11T11:19:34.405Z,19.67
2022-10-11T11:22:09.617Z,17.80
2022-10-11T11:24:48.108Z,16.77
2022-10-11T11:27:26.554Z,15.20
2022-10-11T11:30:18.716Z,14.53
2022-10-11T11:32:50.408Z,13.60
2022-10-11T11:35:33.616Z,13.97
2022-10-11T11:38:20.149Z,15.43
2022-10-11T11:40:52.496Z,13.77
2022-10-11T11:43:28.495Z,12.53
2022-10-11T11:45:59.205Z,12.47
2022-10-11T11:48:26.760Z,10.90
2022-10-11T11:51:05.707Z,12.00
2022-10-11T11:53:49.548Z,10.20
2022-10-11T11:56:27.689Z,9.87
2022-10-11T11:59:14.804Z,9.80
2022-10-11T12:01:49.662Z,7.50
2022-10-11T12:04:26.688Z,5.60
2022-10-11T12:07:17.038Z,6.30
2022-10-11T12:09:50.331Z,7.17
2022-10-11T12:12:30.577Z,5.90
2022-10-11T12:15:18.433Z,5.83
2022-10-11T12:17:57.281Z,5.73
2022-10-11T12:20:29.861Z,5.07
2022-10-11T12:23:24.479Z,4.90
2022-10-11T12:26:28.021Z,4.60
2022-10-11T12:29:27.417Z,3.87
2022-10-11T12:32:00.971Z,4.20
2022-10-11T12:34:37.783Z,4.33
2022-10-11T12:37:19.560Z,4.40
2022-10-11T12:39:54.599Z,3.97
2022-10-11T12:42:25.418Z,4.40
2022-10-11T12:45:13.569Z,4.53
2022-10-11T12:47:55.725Z,4.60
2022-10-11T12:50:37.265Z,4.40
2022-10-11T12:53:17.171Z,4.40
2022-10-11T12:56:04.242Z,3.90
2022-10-11T12:58:46.240Z,4.73
2022-10-11T13:01:22.216Z,3.93
2022-10-11T13:04:09.866Z,4.30
2022-10-11T13:06:45.849Z,4.30
2022-10-11T13:09:12.082Z,4.33
2022-10-11T13:11:48.836Z,3.90
2022-10-11T13:14:19.508Z,4.80
2022-10-11T13:16:45.756Z,4.20
2022-10-11T13:19:14.422Z,4.60
2022-10-11T13:21:40.719Z,4.20
2022-10-11T13:24:15.209Z,4.43
2022-10-11T13:26:44.015Z,4.80
2022-10-11T13:29:23.225Z,4.50
2022-10-11T13:31:49.749Z,4.63
2022-10-11T13:34:18.660Z,4.97
2022-10-11T13:36:47.398Z,4.80
2022-10-11T13:39:31.368Z,4.93
2022-10-11T13:41:59.574Z,4.67
2022-10-11T13:44:26.825Z,5.27
2022-10-11T13:46:53.643Z,4.37
2022-10-11T13:49:25.854Z,4.57
2022-10-11T13:52:01.872Z,4.60
2022-10-11T13:54:52.837Z,4.13
2022-10-11T13:57:45.096Z,4.97
2022-10-11T14:00:17.425Z,4.83
2022-10-11T14:02:50.980Z,4.20
2022-10-11T14:05:27.330Z,4.00
2022-10-11T14:07:53.638Z,4.50
2022-10-11T14:10:23.116Z,5.10
2022-10-11T14:13:03.352Z,5.33
2022-10-11T14:15:36.473Z,6.10
2022-10-11T14:18:34.715Z,4.40
2022-10-11T14:21:19.347Z,5.60
2022-10-11T14:24:07.504Z,5.00
2022-10-11T14:26:36.993Z,5.10
2022-10-11T14:29:12.075Z,5.23
2022-10-11T14:31:41.927Z,6.20
2022-10-11T14:34:15.269Z,4.90
2022-10-11T14:36:41.592Z,5.37
2022-10-11T14:39:15.161Z,6.20
2022-10-11T14:41:41.699Z,5.20
2022-10-11T14:44:08.105Z,5.37
2022-10-11T14:46:35.824Z,5.00
2022-10-11T14:49:02.137Z,5.40
2022-10-11T14:51:34.268Z,5.43
2022-10-11T14:54:00.669Z,6.10
2022-10-11T14:56:27.077Z,5.83
2022-10-11T14:58:53.461Z,5.90
2022-10-11T15:01:19.881Z,6.00
2022-10-11T15:03:46.230Z,6.10
2022-10-11T15:06:22.755Z,5.83
2022-10-11T15:08:49.122Z,5.73
2022-10-11T15:11:17.358Z,6.70
2022-10-11T15:13:44.021Z,6.30
2022-10-11T15:16:12.570Z,6.17
2022-10-11T15:18:39.334Z,7.20
2022-10-11T15:21:06.025Z,6.90
2022-10-11T15:23:32.580Z,6.60
2022-10-11T15:25:59.265Z,5.83
2022-10-11T15:28:29.135Z,6.13
2022-10-11T15:30:56.055Z,5.97
2022-10-11T15:33:23.145Z,6.10
2022-10-11T15:35:49.712Z,5.80
2022-10-11T15:38:20.401Z,6.87
2022-10-11T15:40:47.687Z,6.70
2022-10-11T15:43:14.516Z,6.40
2022-10-11T15:45:41.394Z,6.10
2022-10-11T15:48:08.580Z,6.43
2022-10-11T15:50:39.772Z,6.30
2022-10-11T15:53:08.552Z,5.97
2022-10-11T15:55:40.201Z,5.43
2022-10-11T15:58:12.029Z,6.37
2022-10-11T16:00:38.304Z,6.57
2022-10-11T16:05:32.073Z,6.37
2022-10-11T16:07:58.908Z,6.30
2022-10-11T16:10:25.206Z,6.57
2022-10-11T16:12:51.519Z,6.30
2022-10-11T16:15:17.880Z,6.70
2022-10-11T16:17:46.325Z,7.30
2022-10-11T16:20:13.870Z,7.40
2022-10-11T16:22:40.830Z,6.00
2022-10-11T16:25:07.353Z,6.27
2022-10-11T16:27:33.741Z,7.73
2022-10-11T16:30:00.770Z,6.50
2022-10-11T16:32:27.919Z,7.87
2022-10-11T16:34:54.231Z,6.70
2022-10-11T16:37:20.574Z,6.77
2022-10-11T16:39:46.959Z,7.00
2022-10-11T16:42:13.280Z,7.70
2022-10-11T16:44:39.625Z,8.70
2022-10-11T16:47:06.399Z,9.73
2022-10-11T16:49:33.409Z,12.80
2022-10-11T16:52:00.098Z,12.93
2022-10-11T16:54:30.359Z,11.60
2022-10-11T16:56:57.894Z,14.83
2022-10-11T16:59:24.901Z,12.23
2022-10-11T17:01:51.599Z,8.97
2022-10-11T17:04:18.294Z,8.10
2022-10-11T17:06:44.842Z,8.30
2022-10-11T17:09:11.806Z,7.63
2022-10-11T17:11:38.325Z,7.40
2022-10-11T17:14:05.813Z,8.07
2022-10-11T17:16:32.392Z,7.20
2022-10-11T17:18:58.721Z,8.00
2022-10-11T17:21:25.100Z,7.93
2022-10-11T17:23:51.670Z,7.87
2022-10-11T17:26:21.225Z,8.57
2022-10-11T17:28:48.212Z,9.23
2022-10-11T17:31:15.140Z,9.40
2022-10-11T17:33:41.544Z,10.03
2022-10-11T17:36:34.555Z,10.70
2022-10-11T17:39:04.892Z,10.07
2022-10-11T17:41:32.325Z,11.40
2022-10-11T17:43:59.351Z,11.40
2022-10-11T17:46:27.546Z,12.00
2022-10-11T17:48:56.729Z,13.17
2022-10-11T17:51:23.074Z,11.30
2022-10-11T17:53:52.825Z,11.90
2022-10-11T17:56:28.761Z,10.53
2022-10-11T17:58:57.885Z,11.40
2022-10-11T18:01:27.306Z,10.70
2022-10-11T18:03:56.936Z,13.60
2022-10-11T18:06:25.036Z,11.27
2022-10-11T18:08:51.583Z,13.37
2022-10-11T18:11:19.771Z,12.17
2022-10-11T18:13:51.079Z,12.50
2022-10-11T18:16:19.536Z,15.10
2022-10-11T18:18:46.533Z,12.67
2022-10-11T18:21:13.380Z,10.93
2022-10-11T18:23:40.534Z,11.60
2022-10-11T18:26:12.297Z,13.33
2022-10-11T18:28:40.437Z,14.37
2022-10-11T18:31:12.806Z,15.33
2022-10-11T18:33:39.592Z,16.20
2022-10-11T18:36:07.656Z,15.23
2022-10-11T18:38:35.027Z,14.70
2022-10-11T18:41:06.676Z,14.70
2022-10-11T18:43:34.100Z,13.77
2022-10-11T18:46:09.620Z,14.07
2022-10-11T18:48:36.327Z,12.37
2022-10-11T18:51:08.226Z,11.97
2022-10-11T18:53:35.948Z,12.30
2022-10-11T18:56:04.786Z,11.87
2022-10-11T18:58:33.383Z,9.60
2022-10-11T19:01:11.028Z,10.90
2022-10-11T19:03:38.458Z,9.60
2022-10-11T19:06:07.751Z,9.37
2022-10-11T19:08:34.826Z,8.73
2022-10-11T19:11:06.416Z,8.80
2022-10-11T19:13:33.003Z,8.97
2022-10-11T19:16:14.185Z,9.20
2022-10-11T19:18:44.293Z,8.10
2022-10-11T19:21:12.846Z,8.40
2022-10-11T19:23:41.479Z,8.20
2022-10-11T19:26:16.490Z,8.53
2022-10-11T19:28:43.864Z,9.77
2022-10-11T19:31:13.040Z,8.57
2022-10-11T19:33:39.696Z,8.23
2022-10-11T19:36:06.776Z,9.50
2022-10-11T19:38:35.133Z,10.83
2022-10-11T19:41:02.707Z,10.27
2022-10-11T19:43:29.099Z,8.63
2022-10-11T19:46:02.843Z,9.13
2022-10-11T19:48:29.999Z,8.10
2022-10-11T19:51:08.445Z,9.00
2022-10-11T19:53:35.736Z,8.97
2022-10-11T19:56:04.122Z,7.67
2022-10-11T19:58:30.530Z,8.30
2022-10-11T20:01:02.736Z,7.90
2022-10-11T20:03:29.172Z,6.97
2022-10-11T20:05:58.302Z,5.90
2022-10-11T20:08:24.751Z,5.30
2022-10-11T20:10:53.624Z,5.00
2022-10-11T20:13:20.080Z,5.70
2022-10-11T20:15:46.434Z,4.90
2022-10-11T20:18:12.721Z,4.70
2022-10-11T20:20:39.080Z,5.07
2022-10-11T20:23:05.397Z,4.50
2022-10-11T20:25:31.746Z,5.53
2022-10-11T20:27:58.032Z,5.70
2022-10-11T20:30:24.398Z,4.73
2022-10-11T20:32:50.674Z,5.37
2022-10-11T20:35:16.957Z,5.30
2022-10-11T20:37:43.336Z,4.90
2022-10-11T20:40:10.477Z,4.37
2022-10-11T20:42:37.144Z,5.60
2022-10-11T20:45:03.773Z,4.87
2022-10-11T20:47:30.078Z,5.10
2022-10-11T20:49:56.388Z,4.80
2022-10-11T20:52:22.649Z,5.30
2022-10-11T20:54:49.028Z,5.03
2022-10-11T20:57:15.311Z,6.53
2022-10-11T20:59:41.770Z,4.57
2022-10-11T21:02:10.157Z,4.53
2022-10-11T21:04:36.513Z,4.73
2022-10-11T21:07:02.816Z,4.30
2022-10-11T21:09:29.149Z,4.80
2022-10-11T21:11:55.480Z,5.10
2022-10-11T21:14:21.922Z,4.10
2022-10-11T21:16:48.233Z,4.83
2022-10-11T21:19:15.734Z,4.47
2022-10-11T21:21:42.956Z,4.90
2022-10-11T21:24:09.543Z,4.70
2022-10-11T21:26:35.849Z,4.53
2022-10-11T21:29:03.935Z,4.40
2022-10-11T21:31:34.132Z,4.53
2022-10-11T21:34:01.346Z,5.03
2022-10-11T21:36:27.809Z,4.60
2022-10-11T21:38:54.348Z,6.10
2022-10-11T21:41:22.892Z,5.70
2022-10-11T21:43:49.410Z,6.40
2022-10-11T21:46:53.967Z,6.10
2022-10-11T21:49:16.527Z,6.57
2022-10-11T21:51:42.905Z,6.10
2022-10-11T21:54:09.473Z,5.80
2022-10-11T21:56:35.890Z,6.30
2022-10-11T21:59:03.048Z,6.00
2022-10-11T22:01:30.712Z,5.83
2022-10-11T22:03:57.226Z,5.73
2022-10-11T22:06:23.758Z,5.60
2022-10-11T22:08:50.425Z,5.87
2022-10-11T22:11:17.770Z,5.60
2022-10-11T22:13:44.149Z,5.93
2022-10-11T22:16:13.168Z,5.80
2022-10-11T22:18:41.193Z,5.40
2022-10-11T22:21:13.626Z,5.90
2022-10-11T22:23:44.577Z,5.07
2022-10-11T22:26:14.574Z,5.00
2022-10-11T22:28:41.655Z,4.87
2022-10-11T22:31:09.876Z,5.03
2022-10-11T22:33:37.397Z,5.57
2022-10-11T22:36:08.640Z,5.23
2022-10-11T22:38:36.290Z,5.33
2022-10-11T22:41:02.750Z,5.30
2022-10-11T22:43:29.137Z,4.43
2022-10-11T22:45:55.429Z,5.27
2022-10-11T22:48:21.792Z,4.60
2022-10-11T22:50:48.108Z,4.27
2022-10-11T22:53:15.631Z,4.37
2022-10-11T22:55:42.205Z,5.30
2022-10-11T22:58:08.892Z,4.40
2022-10-11T23:00:35.794Z,4.70
2022-10-11T23:03:02.148Z,4.90
2022-10-11T23:05:28.475Z,4.60
2022-10-11T23:07:54.772Z,5.10
2022-10-11T23:10:21.104Z,4.73
2022-10-11T23:12:47.428Z,4.87
2022-10-11T23:15:13.869Z,5.07
2022-10-11T23:17:40.168Z,4.50
2022-10-11T23:20:07.195Z,4.80
2022-10-11T23:22:33.514Z,4.97
2022-10-11T23:24:59.841Z,4.77
2022-10-11T23:27:26.200Z,4.47
2022-10-11T23:29:52.479Z,4.60
2022-10-11T23:32:18.797Z,4.70
2022-10-11T23:34:45.615Z,4.80
2022-10-11T23:37:11.914Z,5.10
2022-10-11T23:39:38.236Z,4.80
2022-10-11T23:42:04.621Z,4.33
2022-10-11T23:44:30.913Z,5.40
2022-10-11T23:46:57.263Z,4.80
2022-10-11T23:49:23.630Z,4.90
2022-10-11T23:51:49.942Z,4.50
2022-10-11T23:54:16.257Z,4.47
2022-10-11T23:56:42.532Z,5.10
2022-10-11T23:59:08.900Z,5.10
